createdAt,value
2022-08-27T00:00:23.782Z,18.03
2022-08-27T00:03:10.690Z,17.81
2022-08-27T00:05:56.801Z,17.84
2022-08-27T00:08:44.689Z,17.98
2022-08-27T00:11:31.290Z,17.94
2022-08-27T00:14:17.837Z,17.92
2022-08-27T00:17:06.116Z,17.92
2022-08-27T00:19:52.473Z,17.94
2022-08-27T00:22:38.553Z,17.63
2022-08-27T00:25:25.482Z,17.96
2022-08-27T00:28:12.123Z,17.73
2022-08-27T00:30:58.537Z,17.78
2022-08-27T00:33:44.809Z,17.75
2022-08-27T00:36:31.183Z,17.61
2022-08-27T00:39:17.369Z,17.75
2022-08-27T00:42:07.571Z,17.96
2022-08-27T00:44:54.224Z,17.58
2022-08-27T00:47:45.178Z,17.76
2022-08-27T00:50:42.769Z,17.80
2022-08-27T00:53:33.182Z,17.76
2022-08-27T00:56:23.438Z,17.72
2022-08-27T00:59:15.966Z,17.68
2022-08-27T01:02:20.935Z,17.67
2022-08-27T01:05:15.190Z,17.70
2022-08-27T01:08:13.005Z,17.80
2022-08-27T01:11:00.781Z,17.72
2022-08-27T01:13:59.611Z,17.72
2022-08-27T01:16:51.813Z,17.96
2022-08-27T01:20:00.404Z,17.85
2022-08-27T01:23:03.399Z,17.69
2022-08-27T01:25:50.077Z,17.79
2022-08-27T01:28:37.626Z,17.53
2022-08-27T01:31:24.726Z,17.71
2022-08-27T01:34:11.122Z,17.71
2022-08-27T01:36:57.665Z,17.91
2022-08-27T01:39:44.561Z,17.92
2022-08-27T01:42:44.022Z,17.94
2022-08-27T01:45:33.537Z,17.92
2022-08-27T01:48:21.839Z,17.77
2022-08-27T01:51:09.716Z,17.70
2022-08-27T01:53:56.331Z,17.67
2022-08-27T01:56:42.898Z,17.71
2022-08-27T01:59:39.645Z,17.75
2022-08-27T02:02:26.713Z,17.65
2022-08-27T02:05:14.129Z,17.80
2022-08-27T02:08:00.870Z,17.66
2022-08-27T02:10:49.380Z,17.54
2022-08-27T02:13:36.021Z,17.51
2022-08-27T02:16:22.542Z,17.61
2022-08-27T02:19:09.844Z,17.49
2022-08-27T02:22:00.222Z,17.55
2022-08-27T02:24:46.662Z,17.40
2022-08-27T02:27:33.546Z,17.67
2022-08-27T02:30:22.588Z,17.66
2022-08-27T02:33:09.507Z,17.49
2022-08-27T02:35:56.085Z,17.37
2022-08-27T02:38:42.375Z,17.69
2022-08-27T02:41:29.838Z,17.46
2022-08-27T02:44:16.684Z,17.45
2022-08-27T02:47:04.174Z,17.53
2022-08-27T02:49:51.329Z,17.43
2022-08-27T02:52:37.956Z,17.52
2022-08-27T02:55:24.756Z,17.32
2022-08-27T02:58:12.845Z,17.38
2022-08-27T03:01:01.618Z,17.29
2022-08-27T03:03:48.183Z,17.28
2022-08-27T03:06:34.653Z,17.43
2022-08-27T03:09:21.513Z,17.36
2022-08-27T03:12:09.125Z,17.44
2022-08-27T03:14:55.525Z,17.26
2022-08-27T03:18:00.915Z,17.49
2022-08-27T03:20:55.946Z,17.51
2022-08-27T03:23:42.435Z,17.44
2022-08-27T03:26:30.278Z,17.55
2022-08-27T03:29:16.586Z,17.34
2022-08-27T03:32:06.844Z,17.52
2022-08-27T03:34:53.365Z,17.40
2022-08-27T03:37:39.752Z,17.44
2022-08-27T03:40:26.232Z,17.34
2022-08-27T03:43:14.168Z,17.52
2022-08-27T03:46:02.360Z,17.57
2022-08-27T03:48:49.103Z,17.50
2022-08-27T03:51:39.616Z,17.61
2022-08-27T03:54:26.063Z,17.50
2022-08-27T03:57:12.719Z,17.58
2022-08-27T04:00:00.969Z,17.47
2022-08-27T04:02:47.644Z,17.47
2022-08-27T04:05:34.918Z,17.60
2022-08-27T04:08:22.994Z,17.51
2022-08-27T04:11:09.307Z,17.38
2022-08-27T04:13:56.608Z,17.63
2022-08-27T04:16:43.542Z,17.37
2022-08-27T04:19:32.981Z,17.47
2022-08-27T04:22:20.649Z,17.39
2022-08-27T04:25:10.508Z,17.21
2022-08-27T04:27:58.323Z,17.35
2022-08-27T04:30:46.305Z,17.53
2022-08-27T04:33:32.751Z,17.39
2022-08-27T04:36:20.074Z,17.31
2022-08-27T04:39:06.257Z,17.27
2022-08-27T04:41:55.831Z,17.48
2022-08-27T04:44:42.255Z,17.32
2022-08-27T04:47:28.602Z,17.48
2022-08-27T04:50:14.819Z,17.31
2022-08-27T04:53:01.547Z,17.40
2022-08-27T04:55:51.683Z,17.50
2022-08-27T04:58:37.778Z,17.17
2022-08-27T05:01:28.753Z,17.59
2022-08-27T05:04:18.841Z,17.50
2022-08-27T05:07:05.783Z,17.39
2022-08-27T05:09:52.194Z,17.45
2022-08-27T05:12:38.422Z,17.62
2022-08-27T05:15:24.667Z,17.39
2022-08-27T05:18:11.837Z,17.40
2022-08-27T05:20:58.525Z,17.45
2022-08-27T05:23:44.958Z,17.45
2022-08-27T05:26:33.964Z,17.63
2022-08-27T05:29:20.399Z,17.58
2022-08-27T05:32:06.787Z,17.52
2022-08-27T05:34:53.034Z,17.60
2022-08-27T05:37:39.489Z,17.62
2022-08-27T05:40:26.368Z,17.89
2022-08-27T05:43:13.122Z,17.94
2022-08-27T05:45:59.719Z,17.89
2022-08-27T05:48:46.446Z,17.92
2022-08-27T05:51:35.438Z,17.85
2022-08-27T05:54:22.742Z,17.85
2022-08-27T05:57:09.255Z,18.06
2022-08-27T06:00:15.662Z,18.18
2022-08-27T06:03:02.127Z,18.13
2022-08-27T06:05:48.514Z,18.27
2022-08-27T06:08:35.438Z,18.22
2022-08-27T06:11:22.031Z,18.43
2022-08-27T06:14:09.357Z,18.55
2022-08-27T06:16:56.756Z,18.47
2022-08-27T06:19:43.194Z,18.54
2022-08-27T06:22:29.466Z,18.78
2022-08-27T06:25:15.810Z,18.83
2022-08-27T06:28:02.741Z,18.93
2022-08-27T06:30:49.456Z,18.95
2022-08-27T06:33:36.860Z,19.19
2022-08-27T06:36:25.550Z,19.15
2022-08-27T06:39:15.354Z,19.26
2022-08-27T06:42:03.215Z,19.35
2022-08-27T06:44:53.670Z,19.36
2022-08-27T06:47:40.281Z,19.51
2022-08-27T06:50:27.470Z,19.49
2022-08-27T06:53:14.334Z,19.49
2022-08-27T06:56:00.710Z,19.48
2022-08-27T06:58:48.425Z,19.66
2022-08-27T07:01:37.623Z,19.62
2022-08-27T07:04:32.475Z,19.46
2022-08-27T07:07:33.071Z,19.48
2022-08-27T07:10:24.650Z,19.49
2022-08-27T07:13:11.337Z,19.51
2022-08-27T07:15:57.961Z,19.53
2022-08-27T07:18:46.465Z,19.48
2022-08-27T07:21:34.635Z,19.55
2022-08-27T07:24:20.847Z,19.32
2022-08-27T07:27:07.832Z,19.41
2022-08-27T07:29:54.325Z,19.40
2022-08-27T07:32:40.786Z,19.63
2022-08-27T07:35:26.953Z,19.55
2022-08-27T07:38:13.303Z,19.53
2022-08-27T07:41:04.191Z,19.83
2022-08-27T07:44:09.870Z,19.72
2022-08-27T07:46:58.518Z,19.76
2022-08-27T07:49:44.986Z,19.51
2022-08-27T07:52:31.173Z,19.50
2022-08-27T07:55:18.570Z,19.57
2022-08-27T07:58:05.788Z,19.66
2022-08-27T08:00:58.678Z,19.50
2022-08-27T08:03:45.353Z,19.52
2022-08-27T08:06:32.012Z,19.38
2022-08-27T08:09:18.952Z,19.40
2022-08-27T08:12:06.055Z,19.57
2022-08-27T08:14:57.711Z,19.36
2022-08-27T08:17:44.243Z,19.38
2022-08-27T08:20:56.643Z,19.25
2022-08-27T08:23:38.379Z,19.08
2022-08-27T08:26:24.997Z,19.02
2022-08-27T08:29:16.071Z,19.11
2022-08-27T08:32:08.133Z,18.84
2022-08-27T08:34:54.763Z,18.99
2022-08-27T08:37:45.204Z,18.90
2022-08-27T08:40:38.827Z,19.00
2022-08-27T08:43:39.445Z,18.87
2022-08-27T08:46:33.452Z,18.84
2022-08-27T08:49:41.274Z,18.93
2022-08-27T08:52:48.392Z,18.93
2022-08-27T08:55:54.725Z,19.06
2022-08-27T08:58:55.906Z,19.25
2022-08-27T09:01:45.391Z,19.17
2022-08-27T09:04:31.750Z,19.49
2022-08-27T09:07:20.535Z,19.73
2022-08-27T09:10:17.485Z,19.87
2022-08-27T09:13:07.307Z,20.10
2022-08-27T09:15:57.945Z,19.89
2022-08-27T09:18:45.675Z,20.08
2022-08-27T09:21:41.890Z,20.29
2022-08-27T09:24:54.806Z,20.21
2022-08-27T09:27:42.842Z,20.44
2022-08-27T09:30:32.539Z,20.22
2022-08-27T09:33:19.925Z,20.37
2022-08-27T09:36:14.978Z,20.45
2022-08-27T09:39:06.642Z,20.69
2022-08-27T09:41:53.397Z,20.86
2022-08-27T09:44:52.927Z,21.13
2022-08-27T09:47:46.357Z,21.20
2022-08-27T09:50:43.907Z,21.26
2022-08-27T09:53:37.405Z,21.04
2022-08-27T09:56:31.449Z,21.10
2022-08-27T09:59:35.674Z,21.18
2022-08-27T10:02:25.112Z,21.19
2022-08-27T10:05:26.395Z,21.12
2022-08-27T10:08:12.625Z,20.99
2022-08-27T10:11:03.402Z,21.07
2022-08-27T10:13:58.923Z,21.22
2022-08-27T10:17:12.465Z,21.33
2022-08-27T10:20:30.698Z,21.56
2022-08-27T10:23:55.973Z,21.95
2022-08-27T10:26:58.111Z,22.17
2022-08-27T10:29:47.394Z,22.21
2022-08-27T10:32:52.855Z,22.47
2022-08-27T10:35:54.877Z,22.43
2022-08-27T10:38:50.493Z,22.77
2022-08-27T10:41:45.697Z,22.59
2022-08-27T10:44:52.783Z,22.93
2022-08-27T10:47:54.227Z,23.02
2022-08-27T10:50:56.625Z,22.84
2022-08-27T10:54:04.227Z,22.73
2022-08-27T10:57:22.747Z,22.48
2022-08-27T11:00:25.197Z,22.70
2022-08-27T11:03:26.293Z,22.60
2022-08-27T11:06:31.319Z,22.54
2022-08-27T11:09:24.654Z,22.63
2022-08-27T11:12:15.762Z,22.53
2022-08-27T11:15:14.489Z,22.58
2022-08-27T11:18:22.147Z,22.63
2022-08-27T11:21:19.597Z,22.54
2022-08-27T11:24:21.905Z,22.40
2022-08-27T11:27:09.158Z,22.07
2022-08-27T11:29:59.873Z,22.00
2022-08-27T11:33:06.430Z,21.55
2022-08-27T11:36:16.384Z,21.42
2022-08-27T11:39:05.850Z,21.39
2022-08-27T11:41:55.712Z,21.46
2022-08-27T11:44:46.552Z,21.39
2022-08-27T11:47:33.164Z,21.74
2022-08-27T11:50:23.630Z,22.04
2022-08-27T11:53:09.961Z,22.21
2022-08-27T11:55:57.281Z,22.05
2022-08-27T11:58:52.718Z,22.09
2022-08-27T12:01:40.185Z,21.90
2022-08-27T12:04:41.901Z,21.97
2022-08-27T12:07:41.809Z,22.03
2022-08-27T12:11:27.163Z,21.86
2022-08-27T12:14:16.299Z,22.15
2022-08-27T12:17:14.003Z,22.53
2022-08-27T12:20:37.257Z,22.87
2022-08-27T12:23:41.042Z,23.14
2022-08-27T12:26:35.347Z,23.24
2022-08-27T12:29:29.186Z,23.56
2022-08-27T12:32:51.902Z,23.47
2022-08-27T12:35:47.897Z,23.53
2022-08-27T12:38:50.598Z,23.12
2022-08-27T12:41:44.722Z,23.26
2022-08-27T12:44:33.399Z,23.54
2022-08-27T12:47:19.856Z,23.33
2022-08-27T12:50:06.986Z,23.51
2022-08-27T12:53:14.945Z,23.80
2022-08-27T12:56:20.305Z,23.48
2022-08-27T12:59:55.129Z,23.94
2022-08-27T13:03:00.558Z,24.57
2022-08-27T13:05:49.632Z,24.79
2022-08-27T13:08:36.210Z,24.75
2022-08-27T13:11:27.274Z,24.77
2022-08-27T13:14:20.124Z,24.89
2022-08-27T13:17:11.384Z,24.52
2022-08-27T13:20:00.655Z,24.61
2022-08-27T13:22:47.168Z,24.06
2022-08-27T13:25:35.361Z,23.80
2022-08-27T13:28:26.249Z,24.21
2022-08-27T13:31:12.558Z,23.97
2022-08-27T13:34:00.971Z,24.25
2022-08-27T13:36:59.971Z,24.03
2022-08-27T13:39:46.446Z,23.74
2022-08-27T13:42:33.531Z,23.60
2022-08-27T13:45:20.273Z,23.47
2022-08-27T13:48:07.229Z,23.56
2022-08-27T13:50:56.690Z,23.52
2022-08-27T13:54:05.037Z,23.69
2022-08-27T13:57:03.516Z,23.55
2022-08-27T13:59:49.858Z,23.54
2022-08-27T14:02:36.619Z,23.23
2022-08-27T14:05:23.115Z,23.38
2022-08-27T14:08:17.708Z,23.50
2022-08-27T14:11:06.930Z,23.50
2022-08-27T14:13:56.590Z,23.25
2022-08-27T14:16:42.980Z,23.24
2022-08-27T14:19:36.283Z,23.18
2022-08-27T14:22:23.347Z,23.10
2022-08-27T14:25:10.177Z,23.17
2022-08-27T14:27:57.293Z,22.98
2022-08-27T14:30:43.647Z,22.81
2022-08-27T14:33:30.344Z,22.87
2022-08-27T14:36:16.854Z,22.77
2022-08-27T14:39:03.899Z,22.78
2022-08-27T14:41:51.412Z,22.80
2022-08-27T14:44:38.080Z,22.45
2022-08-27T14:47:26.809Z,22.43
2022-08-27T14:50:14.319Z,22.44
2022-08-27T14:53:00.790Z,22.09
2022-08-27T14:55:51.525Z,22.35
2022-08-27T14:58:39.442Z,22.05
2022-08-27T15:01:27.174Z,22.19
2022-08-27T15:04:14.142Z,22.01
2022-08-27T15:07:00.632Z,21.93
2022-08-27T15:09:48.098Z,22.03
2022-08-27T15:12:34.658Z,21.92
2022-08-27T15:15:21.614Z,21.92
2022-08-27T15:18:07.889Z,21.92
2022-08-27T15:20:54.295Z,21.64
2022-08-27T15:23:40.804Z,22.03
2022-08-27T15:26:27.658Z,22.02
2022-08-27T15:29:14.573Z,21.88
2022-08-27T15:32:00.845Z,21.69
2022-08-27T15:34:47.103Z,21.44
2022-08-27T15:37:35.105Z,21.81
2022-08-27T15:40:24.028Z,21.53
2022-08-27T15:43:11.948Z,21.61
2022-08-27T15:45:59.350Z,21.49
2022-08-27T15:48:45.830Z,21.68
2022-08-27T15:51:33.908Z,21.75
2022-08-27T15:54:20.259Z,21.55
2022-08-27T15:57:07.278Z,21.85
2022-08-27T15:59:53.560Z,21.83
2022-08-27T16:02:41.519Z,21.89
2022-08-27T16:05:34.211Z,21.94
2022-08-27T16:08:20.802Z,21.93
2022-08-27T16:11:07.007Z,21.88
2022-08-27T16:13:56.585Z,21.93
2022-08-27T16:16:45.856Z,22.03
2022-08-27T16:19:32.195Z,22.05
2022-08-27T16:22:18.766Z,22.21
2022-08-27T16:25:07.211Z,22.24
2022-08-27T16:27:53.697Z,22.23
2022-08-27T16:30:41.059Z,22.10
2022-08-27T16:33:27.987Z,22.26
2022-08-27T16:36:15.030Z,21.90
2022-08-27T16:39:01.458Z,22.10
2022-08-27T16:41:47.870Z,22.05
2022-08-27T16:44:34.311Z,21.91
2022-08-27T16:47:21.066Z,22.01
2022-08-27T16:50:26.515Z,22.04
2022-08-27T16:53:15.407Z,22.12
2022-08-27T16:56:02.318Z,21.94
2022-08-27T16:58:50.216Z,21.97
2022-08-27T17:01:36.595Z,21.77
2022-08-27T17:04:29.639Z,21.91
2022-08-27T17:07:21.429Z,21.59
2022-08-27T17:10:13.579Z,21.52
2022-08-27T17:13:00.603Z,21.20
2022-08-27T17:15:53.125Z,21.22
2022-08-27T17:18:39.592Z,21.18
2022-08-27T17:21:29.797Z,21.15
2022-08-27T17:24:16.626Z,20.97
2022-08-27T17:27:03.919Z,20.80
2022-08-27T17:29:50.499Z,20.57
2022-08-27T17:32:39.794Z,20.77
2022-08-27T17:35:27.165Z,20.61
2022-08-27T17:38:14.062Z,20.75
2022-08-27T17:41:08.585Z,20.68
2022-08-27T17:44:00.035Z,20.73
2022-08-27T17:46:46.495Z,20.44
2022-08-27T17:49:33.151Z,20.24
2022-08-27T17:52:20.013Z,20.38
2022-08-27T17:55:06.958Z,20.19
2022-08-27T17:57:53.349Z,20.19
2022-08-27T18:00:39.774Z,20.23
2022-08-27T18:03:26.510Z,20.00
2022-08-27T18:06:13.314Z,19.89
2022-08-27T18:08:59.541Z,19.85
2022-08-27T18:11:46.380Z,19.95
2022-08-27T18:14:32.782Z,19.79
2022-08-27T18:17:18.961Z,19.74
2022-08-27T18:20:07.086Z,19.54
2022-08-27T18:22:54.379Z,19.88
2022-08-27T18:25:43.769Z,19.71
2022-08-27T18:28:31.174Z,19.66
2022-08-27T18:31:20.062Z,19.69
2022-08-27T18:34:06.976Z,19.88
2022-08-27T18:36:53.196Z,19.90
2022-08-27T18:39:40.590Z,19.95
2022-08-27T18:42:27.835Z,20.02
2022-08-27T18:45:17.899Z,19.68
2022-08-27T18:48:14.082Z,19.83
2022-08-27T18:51:02.776Z,19.65
2022-08-27T18:53:49.310Z,19.73
2022-08-27T18:56:35.921Z,19.60
2022-08-27T18:59:25.679Z,19.52
2022-08-27T19:02:19.932Z,19.36
2022-08-27T19:05:09.022Z,19.43
2022-08-27T19:07:57.110Z,19.21
2022-08-27T19:10:43.563Z,19.13
2022-08-27T19:13:30.010Z,19.04
2022-08-27T19:16:24.899Z,19.19
2022-08-27T19:19:14.175Z,19.14
2022-08-27T19:22:00.949Z,18.89
2022-08-27T19:24:54.090Z,18.95
2022-08-27T19:27:41.093Z,18.81
2022-08-27T19:30:27.670Z,18.57
2022-08-27T19:33:14.238Z,18.63
2022-08-27T19:36:01.350Z,18.65
2022-08-27T19:38:51.043Z,18.37
2022-08-27T19:41:37.445Z,18.44
2022-08-27T19:44:23.938Z,18.48
2022-08-27T19:47:12.604Z,18.47
2022-08-27T19:49:58.986Z,18.34
2022-08-27T19:52:47.360Z,18.39
2022-08-27T19:55:33.807Z,18.13
2022-08-27T19:58:21.001Z,18.14
2022-08-27T20:01:08.852Z,18.16
2022-08-27T20:03:58.799Z,18.00
2022-08-27T20:06:45.501Z,18.25
2022-08-27T20:09:32.831Z,18.00
2022-08-27T20:12:19.934Z,18.06
2022-08-27T20:15:06.840Z,18.01
2022-08-27T20:17:54.355Z,17.89
2022-08-27T20:20:41.224Z,18.03
2022-08-27T20:23:27.503Z,17.82
2022-08-27T20:26:13.737Z,17.64
2022-08-27T20:29:01.101Z,17.83
2022-08-27T20:31:47.594Z,17.66
2022-08-27T20:34:34.879Z,17.69
2022-08-27T20:37:21.449Z,17.66
2022-08-27T20:40:10.954Z,17.60
2022-08-27T20:42:57.620Z,17.54
2022-08-27T20:45:47.538Z,17.61
2022-08-27T20:48:33.855Z,17.25
2022-08-27T20:51:20.213Z,17.26
2022-08-27T20:54:06.523Z,17.21
2022-08-27T20:56:53.233Z,17.11
2022-08-27T20:59:58.633Z,17.39
2022-08-27T21:02:46.045Z,17.27
2022-08-27T21:05:34.620Z,17.29
2022-08-27T21:08:21.744Z,17.37
2022-08-27T21:11:11.664Z,17.64
2022-08-27T21:13:58.145Z,17.62
2022-08-27T21:16:44.590Z,17.72
2022-08-27T21:19:32.457Z,17.83
2022-08-27T21:22:20.218Z,17.73
2022-08-27T21:25:07.895Z,17.94
2022-08-27T21:27:56.918Z,17.98
2022-08-27T21:30:45.080Z,17.82
2022-08-27T21:33:34.073Z,17.95
2022-08-27T21:36:25.665Z,17.76
2022-08-27T21:39:12.389Z,17.95
2022-08-27T21:42:00.647Z,17.72
2022-08-27T21:44:46.886Z,18.00
2022-08-27T21:47:32.965Z,18.06
2022-08-27T21:50:20.263Z,17.92
2022-08-27T21:53:06.720Z,17.92
2022-08-27T21:55:53.891Z,18.08
2022-08-27T21:58:41.182Z,18.16
2022-08-27T22:01:27.937Z,17.93
2022-08-27T22:04:14.317Z,17.95
2022-08-27T22:07:00.570Z,17.89
2022-08-27T22:09:46.815Z,17.91
2022-08-27T22:12:33.266Z,17.84
2022-08-27T22:15:19.510Z,17.77
2022-08-27T22:18:09.316Z,17.68
2022-08-27T22:20:57.369Z,17.73
2022-08-27T22:23:44.782Z,17.72
2022-08-27T22:26:31.540Z,17.88
2022-08-27T22:29:17.750Z,17.56
2022-08-27T22:32:07.386Z,17.72
2022-08-27T22:34:53.606Z,17.73
2022-08-27T22:37:39.861Z,17.66
2022-08-27T22:40:29.233Z,17.70
2022-08-27T22:43:17.039Z,17.57
2022-08-27T22:46:03.607Z,17.38
2022-08-27T22:48:49.965Z,17.48
2022-08-27T22:51:36.245Z,17.48
2022-08-27T22:54:22.737Z,17.43
2022-08-27T22:57:10.618Z,17.45
2022-08-27T22:59:58.215Z,17.41
2022-08-27T23:02:45.529Z,17.33
2022-08-27T23:05:41.352Z,17.09
2022-08-27T23:08:29.899Z,16.99
2022-08-27T23:11:16.601Z,17.13
2022-08-27T23:14:03.117Z,17.18
2022-08-27T23:16:49.306Z,17.03
2022-08-27T23:19:35.833Z,17.00
2022-08-27T23:22:22.951Z,16.94
2022-08-27T23:25:29.930Z,17.04
2022-08-27T23:28:16.258Z,16.89
2022-08-27T23:31:02.778Z,16.81
2022-08-27T23:33:53.136Z,16.76
2022-08-27T23:36:39.362Z,16.88
2022-08-27T23:39:25.827Z,16.75
2022-08-27T23:42:15.894Z,16.96
2022-08-27T23:45:05.268Z,17.03
2022-08-27T23:47:51.913Z,16.97
2022-08-27T23:50:38.460Z,16.88
2022-08-27T23:53:24.916Z,17.18
2022-08-27T23:56:11.328Z,17.04
2022-08-27T23:58:59.758Z,17.25
